Time;durP1;ratioP1;P1;durP2;ratioP2;P2;SDS_P1;SDS_P2;PMS_P1;PMS_P2;Temp;Humidity;BMP_temperature;BMP_pressure;BME280_temperature;BME280_humidity;BME280_pressure;Samples;Min_cycle;Max_cycle;Signal;HPM_P1;HPM_P2
2023/07/03 00:01:02;;;;;;;7.90;1.75;;;16.30;99.90;;;;;;5134907;27;20092;-48
2023/07/03 00:03:28;;;;;;;5.65;1.80;;;16.30;99.90;;;;;;5134989;27;20054;-47
2023/07/03 00:05:54;;;;;;;6.35;1.85;;;16.30;99.90;;;;;;5116770;27;20058;-48
2023/07/03 00:08:20;;;;;;;10.80;1.90;;;16.20;99.90;;;;;;5134989;27;20046;-47
2023/07/03 00:10:46;;;;;;;6.88;2.20;;;16.30;99.90;;;;;;5116779;27;20488;-48
2023/07/03 00:13:11;;;;;;;5.55;1.60;;;16.30;99.90;;;;;;5134744;27;20050;-47
2023/07/03 00:15:37;;;;;;;6.10;1.33;;;16.20;99.90;;;;;;5134856;27;20047;-47
2023/07/03 00:18:03;;;;;;;2.97;1.05;;;16.20;99.90;;;;;;5134647;27;20050;-47
2023/07/03 00:20:29;;;;;;;6.22;1.63;;;16.20;99.90;;;;;;5134727;27;20053;-47
2023/07/03 00:22:55;;;;;;;5.25;1.67;;;16.20;99.90;;;;;;5134699;27;20127;-48
2023/07/03 00:25:22;;;;;;;7.07;1.30;;;16.20;99.90;;;;;;5134677;27;20097;-48
2023/07/03 00:27:48;;;;;;;4.97;1.67;;;16.20;99.90;;;;;;5134435;27;20513;-47
2023/07/03 00:30:15;;;;;;;6.78;1.60;;;16.20;99.90;;;;;;5134571;27;20065;-48
2023/07/03 00:32:41;;;;;;;;;;;16.20;99.90;;;;;;5134890;27;20051;-47
2023/07/03 00:35:07;;;;;;;7.13;1.70;;;16.20;99.90;;;;;;5134800;28;20007;-48
2023/07/03 00:37:33;;;;;;;7.03;2.00;;;16.20;99.90;;;;;;5134651;28;20050;-47
2023/07/03 00:39:59;;;;;;;;;;;16.20;99.90;;;;;;5134964;28;20068;-47
2023/07/03 00:42:26;;;;;;;6.68;1.40;;;16.20;99.90;;;;;;5116099;28;19919;-47
2023/07/03 00:44:52;;;;;;;6.65;2.03;;;16.20;99.90;;;;;;5134531;28;20047;-49
2023/07/03 00:47:17;;;;;;;4.38;1.10;;;16.20;99.90;;;;;;5099095;27;20051;-48
2023/07/03 00:49:43;;;;;;;4.53;1.80;;;16.20;99.90;;;;;;5137667;27;20111;-48
2023/07/03 00:52:10;;;;;;;5.78;1.35;;;16.20;99.90;;;;;;5138728;27;20126;-47
2023/07/03 00:54:37;;;;;;;5.50;1.30;;;16.30;99.90;;;;;;5138753;27;20059;-47
2023/07/03 00:57:04;;;;;;;7.72;1.58;;;16.20;99.90;;;;;;5138434;27;20047;-47
2023/07/03 00:59:29;;;;;;;6.47;1.30;;;16.20;99.90;;;;;;5138411;27;20047;-47
2023/07/03 01:02:30;;;;;;;8.73;2.10;;;16.20;99.90;;;;;;5120039;27;20136;-48
2023/07/03 01:05:05;;;;;;;6.97;1.65;;;16.20;99.90;;;;;;5138435;27;20155;-48
2023/07/03 01:07:34;;;;;;;3.70;1.15;;;16.20;99.90;;;;;;5120312;27;20043;-47
2023/07/03 01:10:06;;;;;;;4.57;1.40;;;16.20;99.90;;;;;;5120279;27;20043;-48
2023/07/03 01:12:37;;;;;;;5.25;1.27;;;16.20;99.90;;;;;;5120636;27;20074;-47
2023/07/03 01:15:06;;;;;;;6.88;1.63;;;16.20;99.90;;;;;;5138333;27;20039;-48
2023/07/03 01:17:32;;;;;;;4.63;1.20;;;16.20;99.90;;;;;;5138087;27;20047;-47
2023/07/03 01:20:00;;;;;;;5.68;1.45;;;16.20;99.90;;;;;;5138244;27;20046;-47
2023/07/03 01:22:37;;;;;;;5.68;1.25;;;16.20;99.90;;;;;;5138100;27;20043;-48
2023/07/03 01:25:05;;;;;;;;;;;16.20;99.90;;;;;;5138568;27;20047;-48
2023/07/03 01:27:34;;;;;;;6.45;1.40;;;16.20;99.90;;;;;;5119676;27;19919;-47
2023/07/03 01:30:01;;;;;;;6.40;1.45;;;16.10;99.90;;;;;;5102797;27;20129;-48
2023/07/03 01:32:31;;;;;;;4.22;1.30;;;16.10;99.90;;;;;;5137821;27;20472;-47
2023/07/03 01:34:57;;;;;;;5.78;1.17;;;16.10;99.90;;;;;;5102717;27;20053;-48
2023/07/03 01:37:28;;;;;;;5.82;1.40;;;16.10;99.90;;;;;;5137847;27;20087;-47
2023/07/03 01:39:55;;;;;;;5.82;1.38;;;16.10;99.90;;;;;;5137810;27;20047;-47
2023/07/03 01:42:23;;;;;;;6.05;1.40;;;16.10;99.90;;;;;;5137765;27;20047;-47
2023/07/03 01:44:48;;;;;;;4.00;1.23;;;16.10;99.90;;;;;;5137679;27;20043;-48
2023/07/03 01:47:15;;;;;;;4.75;1.08;;;16.10;99.90;;;;;;5137698;27;20039;-47
2023/07/03 01:49:41;;;;;;;5.70;1.08;;;16.10;99.90;;;;;;5137590;27;20047;-47
2023/07/03 01:52:43;;;;;;;5.25;1.45;;;16.10;99.90;;;;;;5137354;27;20039;-47
2023/07/03 01:55:34;;;;;;;4.28;1.27;;;16.20;99.90;;;;;;5076818;27;20055;-47
2023/07/03 01:58:15;;;;;;;4.68;1.10;;;16.20;99.90;;;;;;5137342;27;20101;-47
2023/07/03 02:00:46;;;;;;;4.63;1.08;;;16.10;99.90;;;;;;5137081;27;20043;-49
2023/07/03 02:03:20;;;;;;;6.00;1.02;;;16.20;99.90;;;;;;5137416;27;20050;-47
2023/07/03 02:05:48;;;;;;;4.63;1.00;;;16.10;99.90;;;;;;5137154;27;20137;-48
2023/07/03 02:08:15;;;;;;;5.03;1.30;;;16.10;99.90;;;;;;5137235;27;20043;-47
2023/07/03 02:10:40;;;;;;;5.47;1.30;;;16.10;99.90;;;;;;5137122;27;20062;-47
2023/07/03 02:13:06;;;;;;;7.55;1.70;;;16.10;99.90;;;;;;5137433;27;20039;-48
2023/07/03 02:15:32;;;;;;;5.22;1.33;;;16.10;99.90;;;;;;5102045;27;20070;-47
2023/07/03 02:17:58;;;;;;;6.15;1.35;;;16.00;99.90;;;;;;5137135;27;20414;-47
2023/07/03 02:20:24;;;;;;;5.85;1.75;;;16.00;99.90;;;;;;5136903;27;20043;-47
2023/07/03 02:22:49;;;;;;;5.22;1.30;;;16.00;99.90;;;;;;5137050;27;20050;-47
2023/07/03 02:25:16;;;;;;;5.87;1.00;;;15.90;99.90;;;;;;5136712;27;20480;-47
2023/07/03 02:27:44;;;;;;;2.72;0.73;;;15.90;99.90;;;;;;5136855;27;20285;-47
2023/07/03 02:30:11;;;;;;;4.88;1.17;;;15.90;99.90;;;;;;5136748;27;20130;-47
2023/07/03 02:32:39;;;;;;;4.53;1.10;;;15.90;99.90;;;;;;5136766;27;20051;-47
2023/07/03 02:35:07;;;;;;;3.83;1.20;;;15.80;99.90;;;;;;5136748;27;20475;-47
2023/07/03 02:37:33;;;;;;;6.22;1.02;;;15.80;99.90;;;;;;5136664;27;20079;-47
2023/07/03 02:39:59;;;;;;;4.53;1.00;;;15.80;99.90;;;;;;5136579;27;20490;-48
2023/07/03 02:42:24;;;;;;;3.05;0.80;;;15.70;99.90;;;;;;5136504;27;20043;-47
2023/07/03 02:44:51;;;;;;;4.95;1.05;;;15.70;99.90;;;;;;5136434;27;20046;-48
2023/07/03 02:47:17;;;;;;;4.00;0.77;;;15.70;99.90;;;;;;5136522;27;20090;-47
2023/07/03 02:49:42;;;;;;;3.80;0.75;;;15.70;99.90;;;;;;5136715;27;20497;-47
2023/07/03 02:52:08;;;;;;;5.65;2.15;;;15.60;99.90;;;;;;5136235;27;20035;-47
2023/07/03 02:54:34;;;;;;;4.15;0.88;;;15.60;99.90;;;;;;5136417;27;20051;-48
2023/07/03 02:57:00;;;;;;;3.55;1.02;;;15.60;99.90;;;;;;5136269;27;20047;-47
2023/07/03 02:59:25;;;;;;;5.93;1.00;;;15.60;99.90;;;;;;5118347;27;20043;-47
2023/07/03 03:01:51;;;;;;;6.20;1.00;;;15.60;99.90;;;;;;5136095;27;20039;-47
2023/07/03 03:04:17;;;;;;;4.55;0.90;;;15.60;99.90;;;;;;5136003;27;20130;-48
2023/07/03 03:06:43;;;;;;;2.53;0.70;;;15.50;99.90;;;;;;5136159;27;20089;-47
2023/07/03 03:09:09;;;;;;;4.38;0.60;;;15.50;99.90;;;;;;5135964;27;20483;-47
2023/07/03 03:11:36;;;;;;;3.08;0.75;;;15.50;99.90;;;;;;5135722;27;20042;-47
2023/07/03 03:14:02;;;;;;;4.38;0.70;;;15.50;99.90;;;;;;5135870;27;20039;-47
2023/07/03 03:16:27;;;;;;;2.65;0.60;;;15.40;99.90;;;;;;5135929;27;20051;-48
2023/07/03 03:18:53;;;;;;;4.10;0.73;;;15.40;99.90;;;;;;5135868;27;20069;-48
2023/07/03 03:21:19;;;;;;;6.80;1.48;;;15.40;99.90;;;;;;5117528;27;20051;-48
2023/07/03 03:23:46;;;;;;;3.80;0.60;;;15.40;99.90;;;;;;5135472;27;20074;-46
2023/07/03 03:26:12;;;;;;;;;;;15.30;99.90;;;;;;5136144;27;20043;-48
2023/07/03 03:28:37;;;;;;;3.53;0.63;;;15.30;99.90;;;;;;5135725;27;19923;-48
2023/07/03 03:31:03;;;;;;;3.13;0.80;;;15.30;99.90;;;;;;5135849;27;20036;-48
2023/07/03 03:33:29;;;;;;;3.97;0.70;;;15.30;99.90;;;;;;5100588;27;20289;-46
2023/07/03 03:35:54;;;;;;;2.50;0.50;;;15.30;99.90;;;;;;5135548;27;20295;-47
2023/07/03 03:38:20;;;;;;;5.33;0.77;;;15.30;99.90;;;;;;5135260;27;20050;-47
2023/07/03 03:40:57;;;;;;;4.00;0.70;;;15.30;99.90;;;;;;5135458;27;20105;-47
2023/07/03 03:43:23;;;;;;;1.92;0.60;;;15.30;99.90;;;;;;5135133;27;20479;-48
2023/07/03 03:46:00;;;;;;;2.92;0.73;;;15.20;99.90;;;;;;5117229;27;20050;-48
2023/07/03 03:48:27;;;;;;;5.65;0.85;;;15.30;99.90;;;;;;5135171;27;20121;-48
2023/07/03 03:50:53;;;;;;;3.65;0.63;;;15.20;99.90;;;;;;5134948;27;20044;-47
2023/07/03 03:53:19;;;;;;;4.07;0.80;;;15.20;99.90;;;;;;5135128;27;20062;-47
2023/07/03 03:55:49;;;;;;;4.72;0.80;;;15.20;99.90;;;;;;5135250;27;20051;-47
2023/07/03 03:58:15;;;;;;;4.68;0.70;;;15.20;99.90;;;;;;5135348;27;20047;-47
2023/07/03 04:00:41;;;;;;;3.15;0.73;;;15.20;99.90;;;;;;5135048;27;20122;-47
2023/07/03 04:03:07;;;;;;;7.13;0.98;;;15.20;99.90;;;;;;5134878;27;20043;-47
2023/07/03 04:05:33;;;;;;;4.27;0.87;;;15.20;99.90;;;;;;5134772;27;20035;-48
2023/07/03 04:07:58;;;;;;;4.80;0.82;;;15.20;99.90;;;;;;5116611;27;20341;-47
2023/07/03 04:10:24;;;;;;;2.07;0.47;;;15.20;99.90;;;;;;5134957;27;20078;-46
2023/07/03 04:12:51;;;;;;;7.05;0.93;;;15.20;99.90;;;;;;5116688;27;20281;-47
2023/07/03 04:15:16;;;;;;;3.28;0.68;;;15.20;99.90;;;;;;5134734;27;20046;-46
2023/07/03 04:17:42;;;;;;;4.40;1.10;;;15.20;99.90;;;;;;5116359;27;20122;-48
2023/07/03 04:20:13;;;;;;;2.33;0.60;;;15.30;99.90;;;;;;5116713;27;20768;-46
2023/07/03 04:22:40;;;;;;;3.10;0.88;;;15.20;99.90;;;;;;5134780;27;20292;-48
2023/07/03 04:25:07;;;;;;;1.77;0.60;;;15.30;99.90;;;;;;5134750;27;20039;-47
2023/07/03 04:27:34;;;;;;;4.50;0.88;;;15.30;99.90;;;;;;5116601;28;20035;-48
2023/07/03 04:30:00;;;;;;;5.35;0.70;;;15.30;99.90;;;;;;5134574;27;20444;-47
2023/07/03 04:32:25;;;;;;;4.60;0.77;;;15.30;99.90;;;;;;5134609;27;20124;-47
2023/07/03 04:34:51;;;;;;;3.80;1.00;;;15.30;99.90;;;;;;5116430;27;20479;-48
2023/07/03 04:37:17;;;;;;;3.20;0.70;;;15.30;99.90;;;;;;5116332;28;20372;-47
2023/07/03 04:39:43;;;;;;;6.57;0.70;;;15.30;99.90;;;;;;5134533;28;20450;-48
2023/07/03 04:42:13;;;;;;;3.55;0.73;;;15.30;99.90;;;;;;5134557;28;20039;-47
2023/07/03 04:44:41;;;;;;;3.78;1.15;;;15.30;99.90;;;;;;5134408;28;20043;-47
2023/07/03 04:47:08;;;;;;;4.28;0.80;;;15.30;99.90;;;;;;5134370;28;20043;-47
2023/07/03 04:49:34;;;;;;;5.03;0.80;;;15.30;99.90;;;;;;5116714;28;20055;-46
2023/07/03 04:51:59;;;;;;;2.40;0.98;;;15.30;99.90;;;;;;5134384;28;20050;-47
2023/07/03 04:54:28;;;;;;;4.38;0.82;;;15.30;99.90;;;;;;5134215;28;20043;-47
2023/07/03 04:56:54;;;;;;;4.13;0.75;;;15.30;99.90;;;;;;5134320;28;20046;-47
2023/07/03 04:59:20;;;;;;;7.38;0.60;;;15.30;99.90;;;;;;5116287;28;20043;-47
2023/07/03 05:01:46;;;;;;;3.35;0.60;;;15.30;99.90;;;;;;5134102;28;20146;-48
2023/07/03 05:04:12;;;;;;;4.27;0.60;;;15.30;99.90;;;;;;5134408;28;20511;-46
2023/07/03 05:06:38;;;;;;;1.70;0.45;;;15.40;99.90;;;;;;5134380;28;20081;-47
2023/07/03 05:09:05;;;;;;;4.88;0.93;;;15.40;99.90;;;;;;5116422;28;20111;-47
2023/07/03 05:11:33;;;;;;;4.15;0.90;;;15.40;99.90;;;;;;5134210;28;20058;-47
2023/07/03 05:13:58;;;;;;;5.07;0.90;;;15.50;99.90;;;;;;5134123;28;20505;-46
2023/07/03 05:16:24;;;;;;;4.13;0.70;;;15.50;99.90;;;;;;5115812;28;20047;-47
2023/07/03 05:18:51;;;;;;;4.07;0.90;;;15.60;99.90;;;;;;5134128;28;20043;-47
2023/07/03 05:21:17;;;;;;;;;;;15.70;99.90;;;;;;5134522;28;20042;-46
2023/07/03 05:23:42;;;;;;;4.43;0.60;;;16.00;99.90;;;;;;5133974;28;19919;-47
2023/07/03 05:26:08;;;;;;;2.30;0.60;;;16.50;99.90;;;;;;5133925;28;20039;-46
2023/07/03 05:28:36;;;;;;;3.97;0.80;;;16.80;99.90;;;;;;5134067;28;20039;-46
2023/07/03 05:31:02;;;;;;;3.13;0.45;;;16.80;99.90;;;;;;5133957;28;20053;-47
2023/07/03 05:33:29;;;;;;;;;;;16.70;99.90;;;;;;5134533;27;20060;-49
2023/07/03 05:35:59;;;;;;;3.78;0.55;;;16.80;99.90;;;;;;5118929;27;19919;-48
2023/07/03 05:38:25;;;;;;;3.88;0.70;;;16.80;99.90;;;;;;5137937;27;20129;-49
2023/07/03 05:40:51;;;;;;;3.22;0.55;;;16.80;99.90;;;;;;5137726;27;20129;-47
2023/07/03 05:43:17;;;;;;;6.20;0.70;;;16.70;99.90;;;;;;5137552;27;20043;-47
2023/07/03 05:45:43;;;;;;;;;;;16.70;99.90;;;;;;5137843;27;20080;-48
2023/07/03 05:48:08;;;;;;;2.78;0.50;;;16.70;99.90;;;;;;5137657;27;19919;-48
2023/07/03 05:50:34;;;;;;;4.90;0.77;;;16.70;99.90;;;;;;5119449;27;20437;-47
2023/07/03 05:53:00;;;;;;;2.93;1.07;;;16.60;99.90;;;;;;5137440;27;20054;-47
2023/07/03 05:55:25;;;;;;;3.93;1.00;;;16.50;99.90;;;;;;5137480;27;20277;-46
2023/07/03 05:57:51;;;;;;;2.97;0.52;;;16.40;99.90;;;;;;5137272;27;20333;-48
2023/07/03 06:00:17;;;;;;;4.18;0.60;;;16.30;99.90;;;;;;5118856;27;20043;-48
2023/07/03 06:02:44;;;;;;;2.85;0.95;;;16.30;99.90;;;;;;5137288;27;20043;-49
2023/07/03 06:05:13;;;;;;;2.67;0.93;;;16.30;99.90;;;;;;5137354;27;20384;-48
2023/07/03 06:07:39;;;;;;;4.55;0.50;;;16.30;99.90;;;;;;5137061;27;20456;-48
2023/07/03 06:10:06;;;;;;;3.00;0.60;;;16.30;99.90;;;;;;5137049;27;20399;-48
2023/07/03 06:12:32;;;;;;;3.15;0.68;;;16.40;99.90;;;;;;5137139;27;20126;-49
2023/07/03 06:15:01;;;;;;;5.65;0.75;;;16.40;99.90;;;;;;5137126;27;20130;-48
2023/07/03 06:17:29;;;;;;;2.50;0.85;;;16.40;99.90;;;;;;5137056;27;20090;-47
2023/07/03 06:19:55;;;;;;;3.30;0.60;;;16.60;99.90;;;;;;5118968;27;20058;-48
2023/07/03 06:22:21;;;;;;;3.40;0.70;;;16.60;99.90;;;;;;5136842;27;20445;-48
2023/07/03 06:24:47;;;;;;;3.22;0.65;;;16.70;99.90;;;;;;5118708;27;20085;-48
2023/07/03 06:27:13;;;;;;;5.22;0.75;;;16.80;99.90;;;;;;5136677;27;20078;-48
2023/07/03 06:29:39;;;;;;;;;;;16.80;99.90;;;;;;5137366;27;20035;-48
2023/07/03 06:32:06;;;;;;;7.30;0.90;;;16.90;99.90;;;;;;5137305;27;19987;-48
2023/07/03 06:34:31;;;;;;;;;;;17.00;99.90;;;;;;5137295;27;20043;-51
2023/07/03 06:36:57;;;;;;;3.47;0.50;;;17.00;99.90;;;;;;5118738;27;19972;-47
2023/07/03 06:39:23;;;;;;;2.30;0.52;;;17.10;99.90;;;;;;5118547;27;20471;-49
2023/07/03 06:41:49;;;;;;;2.97;0.50;;;17.10;99.90;;;;;;5136302;27;20039;-48
2023/07/03 06:44:16;;;;;;;5.10;0.70;;;17.20;99.90;;;;;;5118345;27;20043;-47
2023/07/03 06:46:43;;;;;;;5.28;0.73;;;17.20;99.90;;;;;;5118305;27;20129;-48
2023/07/03 06:49:09;;;;;;;4.80;0.80;;;17.20;99.90;;;;;;5136515;27;20119;-47
2023/07/03 06:51:35;;;;;;;;;;;17.20;99.90;;;;;;5136975;27;20407;-49
2023/07/03 06:54:01;;;;;;;2.63;0.65;;;17.10;99.90;;;;;;5136613;27;19919;-48
2023/07/03 06:56:28;;;;;;;2.42;0.70;;;17.10;99.90;;;;;;5136289;27;20050;-49
2023/07/03 06:58:54;;;;;;;3.75;0.60;;;16.90;99.90;;;;;;5136322;27;20051;-48
2023/07/03 07:01:23;;;;;;;3.42;0.40;;;16.80;99.90;;;;;;5136354;27;20184;-49
2023/07/03 07:03:49;;;;;;;1.75;0.50;;;16.60;99.90;;;;;;5136711;27;20425;-47
2023/07/03 07:06:22;;;;;;;2.05;0.60;;;16.40;99.90;;;;;;5136037;27;20054;-49
2023/07/03 07:08:48;;;;;;;2.35;0.75;;;16.30;99.90;;;;;;5135963;27;20534;-48
2023/07/03 07:11:16;;;;;;;;;;;16.20;99.90;;;;;;5136202;27;20479;-49
2023/07/03 07:13:44;;;;;;;3.28;0.70;;;16.20;99.90;;;;;;5136101;27;20287;-47
2023/07/03 07:16:19;;;;;;;2.08;0.52;;;16.10;99.90;;;;;;5117520;27;20072;-48
2023/07/03 07:18:47;;;;;;;3.38;0.95;;;16.10;99.90;;;;;;5135938;27;20043;-47
2023/07/03 07:21:14;;;;;;;3.28;0.82;;;16.10;99.90;;;;;;5135727;27;20066;-47
2023/07/03 07:23:40;;;;;;;3.88;0.60;;;16.20;99.90;;;;;;5135659;27;20088;-49
2023/07/03 07:26:05;;;;;;;4.50;0.50;;;16.30;99.90;;;;;;5117521;27;20050;-49
2023/07/03 07:28:31;;;;;;;2.40;0.57;;;16.40;99.90;;;;;;5135786;27;20483;-49
2023/07/03 07:30:57;;;;;;;2.83;0.55;;;16.70;99.90;;;;;;5135674;27;20372;-50
2023/07/03 07:33:23;;;;;;;4.45;0.73;;;17.10;99.90;;;;;;5117288;27;20475;-49
2023/07/03 07:35:49;;;;;;;;;;;17.40;99.90;;;;;;5135756;27;20089;-48
2023/07/03 07:38:15;;;;;;;5.45;0.52;;;17.50;99.90;;;;;;5135275;27;20024;-47
2023/07/03 07:40:41;;;;;;;1.92;0.45;;;17.50;99.90;;;;;;5117276;27;20051;-48
2023/07/03 07:43:07;;;;;;;2.90;0.47;;;17.40;99.90;;;;;;5135306;27;20511;-49
2023/07/03 07:45:33;;;;;;;1.85;0.35;;;17.20;99.90;;;;;;5135275;27;20399;-47
2023/07/03 07:48:00;;;;;;;2.58;0.52;;;17.10;99.90;;;;;;5135330;27;20035;-47
2023/07/03 07:50:27;;;;;;;2.63;1.05;;;17.10;99.90;;;;;;5135253;27;20087;-49
2023/07/03 07:52:53;;;;;;;4.57;0.55;;;17.10;99.90;;;;;;5134688;27;20506;-47
2023/07/03 07:55:19;;;;;;;4.25;0.80;;;17.10;99.90;;;;;;5135381;27;20051;-48
2023/07/03 07:57:46;;;;;;;3.03;0.40;;;17.10;99.90;;;;;;5134834;27;20516;-48
2023/07/03 08:00:12;;;;;;;3.15;0.40;;;17.10;99.90;;;;;;5116837;27;20063;-47
2023/07/03 08:02:38;;;;;;;7.43;0.70;;;17.00;99.90;;;;;;5134944;27;20144;-48
2023/07/03 08:05:04;;;;;;;3.53;0.63;;;17.00;99.90;;;;;;5116699;27;20043;-46
2023/07/03 08:07:30;;;;;;;1.27;0.45;;;17.00;99.90;;;;;;5134744;27;20090;-47
2023/07/03 08:09:56;;;;;;;5.35;0.60;;;17.00;99.90;;;;;;5116638;27;20043;-47
2023/07/03 08:12:21;;;;;;;2.00;0.70;;;17.10;99.90;;;;;;5135026;27;20043;-47
2023/07/03 08:14:47;;;;;;;2.90;0.57;;;17.10;99.90;;;;;;5134807;27;20054;-47
2023/07/03 08:17:13;;;;;;;3.45;0.70;;;17.20;99.90;;;;;;5134743;27;20046;-48
2023/07/03 08:19:38;;;;;;;3.53;0.70;;;17.20;99.90;;;;;;5134624;27;20391;-48
2023/07/03 08:22:04;;;;;;;1.67;0.50;;;17.30;99.90;;;;;;5134705;27;20135;-49
2023/07/03 08:24:30;;;;;;;2.42;0.70;;;17.40;99.90;;;;;;5134768;27;20487;-48
2023/07/03 08:26:56;;;;;;;3.10;0.67;;;17.40;99.90;;;;;;5099606;27;20113;-47
2023/07/03 08:29:21;;;;;;;3.03;0.57;;;17.40;99.90;;;;;;5134664;27;20637;-48
2023/07/03 08:31:47;;;;;;;3.00;0.52;;;17.40;99.90;;;;;;5134831;27;20858;-47
2023/07/03 08:34:13;;;;;;;1.13;0.28;;;17.30;99.90;;;;;;5116328;27;20246;-48
2023/07/03 08:36:38;;;;;;;2.78;0.38;;;17.20;99.90;;;;;;5134444;27;20046;-48
2023/07/03 08:39:04;;;;;;;3.73;0.60;;;17.10;99.90;;;;;;5134718;28;20498;-48
2023/07/03 08:41:40;;;;;;;0.82;0.32;;;17.10;99.90;;;;;;5134451;28;20527;-48
2023/07/03 08:44:08;;;;;;;2.97;0.32;;;17.10;99.90;;;;;;5134541;28;20047;-48
2023/07/03 08:46:36;;;;;;;2.20;0.30;;;17.10;99.90;;;;;;5134452;28;20035;-47
2023/07/03 08:49:05;;;;;;;1.15;0.30;;;17.20;99.90;;;;;;5116246;28;20051;-33
2023/07/03 08:51:36;;;;;;;2.40;0.75;;;17.30;99.90;;;;;;5134896;28;20047;-48
2023/07/03 08:54:14;;;;;;;0.63;0.40;;;17.40;99.90;;;;;;5134052;28;20522;-47
2023/07/03 08:56:41;;;;;;;3.75;0.40;;;17.50;99.90;;;;;;5134316;28;20092;-48
2023/07/03 08:59:06;;;;;;;1.58;0.40;;;17.60;99.90;;;;;;5134205;28;20484;-48
2023/07/03 09:01:45;;;;;;;1.52;0.40;;;17.60;99.90;;;;;;5134057;28;20031;-47
2023/07/03 09:04:36;;;;;;;2.53;0.20;;;17.60;99.90;;;;;;5134548;28;20051;-47
2023/07/03 09:07:07;;;;;;;2.47;0.40;;;17.60;99.90;;;;;;5134579;28;20043;-48
2023/07/03 09:09:38;;;;;;;3.10;0.35;;;17.60;99.90;;;;;;5135389;27;20522;-47
2023/07/03 09:12:25;;;;;;;2.22;0.20;;;17.60;99.90;;;;;;5120652;27;20050;-49
2023/07/03 09:15:04;;;;;;;1.90;0.38;;;17.60;99.90;;;;;;5138358;27;20487;-47
2023/07/03 09:17:31;;;;;;;1.63;0.40;;;17.60;99.90;;;;;;5138311;27;20503;-47
2023/07/03 09:19:58;;;;;;;1.92;0.50;;;17.50;99.90;;;;;;5119682;27;20050;-47
2023/07/03 09:22:42;;;;;;;0.80;0.30;;;17.30;99.90;;;;;;5137893;27;20043;-46
2023/07/03 09:25:14;;;;;;;2.90;0.40;;;17.10;99.90;;;;;;5138197;27;20054;-47
2023/07/03 09:27:41;;;;;;;2.00;0.30;;;16.90;99.90;;;;;;5120105;27;20347;-49
2023/07/03 09:30:11;;;;;;;4.20;0.60;;;16.80;99.90;;;;;;5138190;27;20121;-47
2023/07/03 09:32:37;;;;;;;1.02;0.22;;;16.80;99.90;;;;;;5138012;27;20087;-48
2023/07/03 09:35:05;;;;;;;1.25;0.35;;;16.80;99.90;;;;;;5137777;27;20055;-47
2023/07/03 09:37:43;;;;;;;1.67;0.57;;;16.90;99.90;;;;;;5102519;27;20062;-48
2023/07/03 09:40:15;;;;;;;2.17;0.47;;;17.00;99.90;;;;;;5137898;27;20043;-46
2023/07/03 09:42:41;;;;;;;1.83;0.60;;;17.00;99.90;;;;;;5138045;27;20433;-47
2023/07/03 09:45:18;;;;;;;;;;;17.00;99.90;;;;;;5137982;27;20043;-46
2023/07/03 09:47:53;;;;;;;2.10;0.43;;;17.00;99.90;;;;;;5137779;27;19958;-47
2023/07/03 09:50:30;;;;;;;1.08;0.45;;;17.10;99.90;;;;;;5119458;27;20043;-46
2023/07/03 09:52:56;;;;;;;;;;;17.20;99.90;;;;;;5137905;27;20480;-52
2023/07/03 09:55:22;;;;;;;1.73;0.40;;;17.20;99.90;;;;;;5137470;27;20303;-45
2023/07/03 09:57:48;;;;;;;1.60;0.43;;;17.20;99.90;;;;;;5137400;27;20086;-47
2023/07/03 10:00:20;;;;;;;1.65;0.50;;;17.20;99.90;;;;;;5137531;27;20090;-47
2023/07/03 10:02:50;;;;;;;13.27;0.68;;;17.20;99.90;;;;;;5119032;27;20118;-47
2023/07/03 10:05:19;;;;;;;4.82;0.52;;;17.20;99.90;;;;;;5137707;27;20118;-47
2023/07/03 10:07:47;;;;;;;2.83;0.50;;;17.20;99.90;;;;;;5137245;27;20050;-48
2023/07/03 10:10:16;;;;;;;2.80;0.60;;;17.20;99.90;;;;;;5136971;27;20054;-48
2023/07/03 10:12:52;;;;;;;2.60;0.30;;;17.20;99.90;;;;;;5137251;27;20047;-48
2023/07/03 10:15:33;;;;;;;1.45;0.40;;;17.30;99.90;;;;;;5137262;27;20051;-48
2023/07/03 10:18:11;;;;;;;1.52;0.40;;;17.20;99.90;;;;;;5136999;27;20510;-48
2023/07/03 10:20:43;;;;;;;1.67;0.50;;;17.20;99.90;;;;;;5136623;27;20118;-46
2023/07/03 10:23:31;;;;;;;3.67;0.32;;;17.20;99.90;;;;;;5137203;27;20404;-49
2023/07/03 10:26:04;;;;;;;1.17;0.50;;;17.20;99.90;;;;;;5118621;27;20514;-48
2023/07/03 10:28:36;;;;;;;1.77;0.50;;;17.20;99.90;;;;;;5118727;27;20127;-47
2023/07/03 10:31:06;;;;;;;3.35;0.40;;;17.10;99.90;;;;;;5136942;27;20039;-47
2023/07/03 10:33:45;;;;;;;1.65;0.38;;;17.10;99.90;;;;;;5137075;27;20096;-48
2023/07/03 10:36:19;;;;;;;1.55;0.20;;;17.00;99.90;;;;;;5118879;27;20055;-48
2023/07/03 10:38:50;;;;;;;2.58;0.30;;;17.00;99.90;;;;;;5136665;27;20043;-48
2023/07/03 10:41:43;;;;;;;3.08;0.93;;;16.90;99.90;;;;;;5136489;27;20496;-46
2023/07/03 10:44:18;;;;;;;1.08;0.40;;;16.90;99.90;;;;;;5136190;27;20066;-47
2023/07/03 10:47:16;;;;;;;2.35;0.50;;;17.00;99.90;;;;;;5136782;27;20104;-47
2023/07/03 10:49:41;;;;;;;2.13;0.50;;;17.10;99.90;;;;;;5136555;27;20040;-47
2023/07/03 10:52:25;;;;;;;1.88;0.30;;;17.20;99.90;;;;;;5118064;27;20054;-47
2023/07/03 10:55:23;;;;;;;2.95;0.38;;;17.20;99.90;;;;;;5118427;27;20130;-46
2023/07/03 10:58:37;;;;;;;3.15;0.40;;;17.10;99.90;;;;;;5136251;27;20579;-50
2023/07/03 11:01:23;;;;;;;0.65;0.30;;;17.10;99.90;;;;;;5129134;27;20095;-49
2023/07/03 11:03:51;;;;;;;1.85;0.50;;;17.10;99.90;;;;;;5118082;27;20542;-48
2023/07/03 11:06:39;;;;;;;1.88;0.30;;;17.00;99.90;;;;;;5135976;27;20514;-48
2023/07/03 11:09:29;;;;;;;1.15;0.40;;;16.90;99.90;;;;;;5136263;27;20047;-48
2023/07/03 11:12:23;;;;;;;1.60;0.40;;;16.90;99.90;;;;;;5136299;27;20092;-48
2023/07/03 11:14:55;;;;;;;1.73;0.40;;;16.90;99.90;;;;;;5117983;27;20399;-48
2023/07/03 11:17:33;;;;;;;2.38;0.40;;;17.00;99.90;;;;;;5136190;27;20444;-49
2023/07/03 11:19:59;;;;;;;1.80;0.40;;;17.20;99.90;;;;;;5136003;27;20047;-48
2023/07/03 11:22:39;;;;;;;3.90;0.70;;;17.40;99.90;;;;;;5135727;27;20368;-48
2023/07/03 11:25:11;;;;;;;2.95;0.65;;;17.50;99.90;;;;;;5135710;27;20269;-48
2023/07/03 11:28:10;;;;;;;3.60;0.50;;;17.70;99.90;;;;;;5135626;27;20039;-47
2023/07/03 11:30:39;;;;;;;1.88;0.50;;;17.80;99.90;;;;;;5136100;27;20061;-47
2023/07/03 11:33:05;;;;;;;1.60;0.47;;;18.00;99.90;;;;;;5134738;27;20043;-47
2023/07/03 11:35:32;;;;;;;;;;;18.20;99.90;;;;;;5135867;27;20529;-48
2023/07/03 11:38:03;;;;;;;2.92;0.82;;;18.40;99.90;;;;;;5135409;27;20015;-51
2023/07/03 11:40:50;;;;;;;2.05;0.50;;;18.50;99.90;;;;;;5135865;27;20043;-47
2023/07/03 11:43:21;;;;;;;;;;;18.40;99.90;;;;;;5134643;27;20047;-47
2023/07/03 11:46:15;;;;;;;2.30;0.40;;;18.30;99.90;;;;;;5135311;27;19926;-47
2023/07/03 11:48:55;;;;;;;1.77;0.40;;;18.20;99.90;;;;;;5135416;27;20122;-49
2023/07/03 11:51:37;;;;;;;4.20;0.52;;;18.10;99.90;;;;;;5135403;27;20057;-47
2023/07/03 11:54:26;;;;;;;1.73;0.60;;;18.00;99.90;;;;;;5117196;27;20062;-47
2023/07/03 11:57:02;;;;;;;1.70;0.50;;;17.90;99.90;;;;;;5135258;27;20133;-49
2023/07/03 11:59:34;;;;;;;4.88;0.55;;;17.80;99.90;;;;;;5135441;27;20047;-47
2023/07/03 12:02:11;;;;;;;2.33;0.38;;;17.70;99.90;;;;;;5135092;27;20047;-50
2023/07/03 12:04:44;;;;;;;3.85;0.45;;;17.70;99.90;;;;;;5135074;27;20042;-48
2023/07/03 12:07:16;;;;;;;1.05;0.38;;;17.60;99.90;;;;;;5134903;27;20447;-48
2023/07/03 12:09:42;;;;;;;5.45;1.00;;;17.60;99.90;;;;;;5135398;27;20089;-48
2023/07/03 12:12:24;;;;;;;2.92;0.57;;;17.80;99.90;;;;;;5134857;27;20139;-45
2023/07/03 12:15:00;;;;;;;2.38;0.50;;;17.90;99.90;;;;;;5134882;27;20054;-48
2023/07/03 12:17:35;;;;;;;1.73;0.32;;;18.30;99.90;;;;;;5134817;27;20107;-47
2023/07/03 12:20:12;;;;;;;1.55;0.30;;;18.40;99.90;;;;;;5134924;27;20039;-48
2023/07/03 12:22:44;;;;;;;3.28;0.60;;;18.40;99.90;;;;;;5116695;27;20107;-47
2023/07/03 12:25:12;;;;;;;0.93;0.32;;;18.30;99.90;;;;;;5134935;27;20044;-48
2023/07/03 12:27:39;;;;;;;2.30;0.20;;;18.20;99.90;;;;;;5116328;27;20052;-47
2023/07/03 12:30:27;;;;;;;2.88;0.40;;;18.10;99.90;;;;;;5135236;27;20107;-47
2023/07/03 12:32:54;;;;;;;1.77;0.40;;;18.00;99.90;;;;;;5134686;27;20039;-47
2023/07/03 12:35:31;;;;;;;2.72;0.65;;;18.00;99.90;;;;;;5134640;27;20047;-46
2023/07/03 12:38:00;;;;;;;1.77;0.35;;;17.90;99.90;;;;;;5116577;27;20088;-47
2023/07/03 12:40:26;;;;;;;3.15;0.40;;;17.90;99.90;;;;;;5134363;28;20043;-47
2023/07/03 12:42:54;;;;;;;;;;;17.80;99.90;;;;;;5135172;27;20170;-48
2023/07/03 12:45:24;;;;;;;1.35;0.32;;;17.80;99.90;;;;;;5141526;27;19919;-47
2023/07/03 12:48:00;;;;;;;4.07;0.38;;;17.80;99.90;;;;;;5123285;27;20093;-49
2023/07/03 12:50:26;;;;;;;1.03;0.30;;;17.70;99.90;;;;;;5123271;27;20051;-48
2023/07/03 12:52:59;;;;;;;0.73;0.20;;;17.60;99.90;;;;;;5141144;27;20039;-47
2023/07/03 12:55:26;;;;;;;2.65;0.30;;;17.60;99.90;;;;;;5141050;27;20082;-48
2023/07/03 12:57:54;;;;;;;4.47;1.58;;;17.60;99.90;;;;;;5141418;27;20049;-50
2023/07/03 13:00:30;;;;;;;1.50;0.20;;;17.60;99.90;;;;;;5141428;27;20123;-48
2023/07/03 13:02:57;;;;;;;1.13;0.30;;;17.60;99.90;;;;;;5141350;27;20035;-48